Terminal Aerodrome Forecast
Issued by NWS

Home | Current Version | Previous Version | Graphics & Text | Print | Product List | Glossary On
Versions: 1 2 3 4 5 6 7 8 9 10 11 12 13 14 15 16 17 18 19 20
012
FTUS43 KUNR 151120
TAFGCC
TAF
KGCC 151120Z 1512/1612 36004KT P6SM BKN012
     FM151300 34015G25KT 1SM -SN BKN008 OVC010
      TEMPO 1516/1520 1/2SM BLSN
     FM152000 25015KT P6SM BKN015=

USA.gov is the U.S. government's official web portal to all federal, state and local government web resources and services.